sensor_id;sensor_type;location;lat;lon;timestamp;pressure;altitude;pressure_sealevel;temperature;humidity
56582;BME280;42463;52.214;21.238;2022-10-16T00:01:16;100478.42;;;16.12;62.04
56582;BME280;42463;52.214;21.238;2022-10-16T00:03:42;100475.41;;;16.12;62.06
56582;BME280;42463;52.214;21.238;2022-10-16T00:06:08;100477.92;;;16.13;61.92
56582;BME280;42463;52.214;21.238;2022-10-16T00:08:33;100475.73;;;16.13;62.12
56582;BME280;42463;52.214;21.238;2022-10-16T00:11:02;100487.45;;;16.13;61.99
56582;BME280;42463;52.214;21.238;2022-10-16T00:13:27;100485.33;;;16.12;61.89
56582;BME280;42463;52.214;21.238;2022-10-16T00:15:54;100487.91;;;16.11;62.05
56582;BME280;42463;52.214;21.238;2022-10-16T00:18:19;100488.80;;;16.09;61.84
56582;BME280;42463;52.214;21.238;2022-10-16T00:20:44;100492.73;;;16.09;62.02
56582;BME280;42463;52.214;21.238;2022-10-16T00:23:08;100489.75;;;16.08;62.09
56582;BME280;42463;52.214;21.238;2022-10-16T00:25:33;100482.64;;;16.06;62.05
56582;BME280;42463;52.214;21.238;2022-10-16T00:27:59;100478.88;;;16.06;61.93
56582;BME280;42463;52.214;21.238;2022-10-16T00:30:24;100481.45;;;16.06;62.18
56582;BME280;42463;52.214;21.238;2022-10-16T00:32:50;100482.42;;;16.07;62.16
56582;BME280;42463;52.214;21.238;2022-10-16T00:35:15;100483.69;;;16.06;62.10
56582;BME280;42463;52.214;21.238;2022-10-16T00:37:39;100482.30;;;16.03;62.09
56582;BME280;42463;52.214;21.238;2022-10-16T00:40:04;100480.73;;;16.01;62.54
56582;BME280;42463;52.214;21.238;2022-10-16T00:42:28;100482.23;;;15.99;62.65
56582;BME280;42463;52.214;21.238;2022-10-16T00:44:54;100479.29;;;15.98;62.99
56582;BME280;42463;52.214;21.238;2022-10-16T00:47:22;100478.32;;;15.95;63.07
56582;BME280;42463;52.214;21.238;2022-10-16T00:49:50;100482.89;;;15.92;63.01
56582;BME280;42463;52.214;21.238;2022-10-16T00:52:15;100489.13;;;15.92;63.18
56582;BME280;42463;52.214;21.238;2022-10-16T00:54:40;100493.70;;;15.90;63.80
56582;BME280;42463;52.214;21.238;2022-10-16T00:57:06;100498.09;;;15.88;63.77
56582;BME280;42463;52.214;21.238;2022-10-16T00:59:33;100499.96;;;15.86;63.50
56582;BME280;42463;52.214;21.238;2022-10-16T01:01:58;100504.30;;;15.86;63.71
56582;BME280;42463;52.214;21.238;2022-10-16T01:04:24;100501.23;;;15.85;63.51
56582;BME280;42463;52.214;21.238;2022-10-16T01:06:55;100497.89;;;15.86;63.60
56582;BME280;42463;52.214;21.238;2022-10-16T01:09:26;100496.79;;;15.87;63.57
56582;BME280;42463;52.214;21.238;2022-10-16T01:12:01;100500.06;;;15.88;63.50
56582;BME280;42463;52.214;21.238;2022-10-16T01:14:39;100503.95;;;15.87;63.13
56582;BME280;42463;52.214;21.238;2022-10-16T01:17:09;100519.10;;;15.82;63.24
56582;BME280;42463;52.214;21.238;2022-10-16T01:19:50;100528.10;;;15.79;63.65
56582;BME280;42463;52.214;21.238;2022-10-16T01:22:18;100529.70;;;15.78;64.11
56582;BME280;42463;52.214;21.238;2022-10-16T01:24:48;100522.70;;;15.77;64.39
56582;BME280;42463;52.214;21.238;2022-10-16T01:27:15;100518.02;;;15.75;64.42
56582;BME280;42463;52.214;21.238;2022-10-16T01:29:48;100512.83;;;15.74;64.54
56582;BME280;42463;52.214;21.238;2022-10-16T01:32:17;100508.15;;;15.70;64.60
56582;BME280;42463;52.214;21.238;2022-10-16T01:34:49;100506.58;;;15.69;65.09
56582;BME280;42463;52.214;21.238;2022-10-16T01:37:18;100512.89;;;15.65;64.94
56582;BME280;42463;52.214;21.238;2022-10-16T01:39:48;100521.84;;;15.62;65.34
56582;BME280;42463;52.214;21.238;2022-10-16T01:42:18;100523.20;;;15.61;65.50
56582;BME280;42463;52.214;21.238;2022-10-16T01:44:44;100525.93;;;15.61;65.70
56582;BME280;42463;52.214;21.238;2022-10-16T01:47:10;100531.14;;;15.61;65.95
56582;BME280;42463;52.214;21.238;2022-10-16T01:49:39;100528.77;;;15.59;65.83
56582;BME280;42463;52.214;21.238;2022-10-16T01:52:07;100528.61;;;15.59;66.16
56582;BME280;42463;52.214;21.238;2022-10-16T01:54:35;100524.88;;;15.57;66.02
56582;BME280;42463;52.214;21.238;2022-10-16T01:57:01;100528.13;;;15.53;66.31
56582;BME280;42463;52.214;21.238;2022-10-16T01:59:29;100534.33;;;15.49;66.72
56582;BME280;42463;52.214;21.238;2022-10-16T02:01:58;100528.52;;;15.45;66.49
56582;BME280;42463;52.214;21.238;2022-10-16T02:04:26;100524.16;;;15.42;67.05
56582;BME280;42463;52.214;21.238;2022-10-16T02:06:53;100520.14;;;15.39;67.11
56582;BME280;42463;52.214;21.238;2022-10-16T02:09:17;100517.24;;;15.37;67.22
56582;BME280;42463;52.214;21.238;2022-10-16T02:11:41;100518.23;;;15.36;67.42
56582;BME280;42463;52.214;21.238;2022-10-16T02:14:07;100517.86;;;15.37;67.57
56582;BME280;42463;52.214;21.238;2022-10-16T02:16:37;100522.07;;;15.35;67.64
56582;BME280;42463;52.214;21.238;2022-10-16T02:19:01;100522.23;;;15.35;67.67
56582;BME280;42463;52.214;21.238;2022-10-16T02:21:28;100519.19;;;15.33;67.80
56582;BME280;42463;52.214;21.238;2022-10-16T02:23:58;100520.89;;;15.33;67.93
56582;BME280;42463;52.214;21.238;2022-10-16T02:26:30;100514.11;;;15.32;67.92
56582;BME280;42463;52.214;21.238;2022-10-16T02:28:57;100516.55;;;15.27;67.84
56582;BME280;42463;52.214;21.238;2022-10-16T02:31:27;100514.77;;;15.23;68.08
56582;BME280;42463;52.214;21.238;2022-10-16T02:33:54;100513.46;;;15.22;68.12
56582;BME280;42463;52.214;21.238;2022-10-16T02:36:18;100514.67;;;15.20;68.26
56582;BME280;42463;52.214;21.238;2022-10-16T02:38:43;100509.93;;;15.18;68.34
56582;BME280;42463;52.214;21.238;2022-10-16T02:41:08;100511.58;;;15.17;68.37
56582;BME280;42463;52.214;21.238;2022-10-16T02:43:32;100514.38;;;15.17;68.66
56582;BME280;42463;52.214;21.238;2022-10-16T02:45:57;100517.66;;;15.16;68.54
56582;BME280;42463;52.214;21.238;2022-10-16T02:48:22;100516.90;;;15.14;68.51
56582;BME280;42463;52.214;21.238;2022-10-16T02:50:47;100518.77;;;15.13;68.56
56582;BME280;42463;52.214;21.238;2022-10-16T02:53:11;100517.08;;;15.11;68.36
56582;BME280;42463;52.214;21.238;2022-10-16T02:55:36;100517.24;;;15.11;68.29
56582;BME280;42463;52.214;21.238;2022-10-16T02:58:00;100517.02;;;15.10;68.33
56582;BME280;42463;52.214;21.238;2022-10-16T03:00:25;100518.29;;;15.11;68.35
56582;BME280;42463;52.214;21.238;2022-10-16T03:02:49;100521.29;;;15.11;68.21
56582;BME280;42463;52.214;21.238;2022-10-16T03:05:14;100521.23;;;15.11;68.35
56582;BME280;42463;52.214;21.238;2022-10-16T03:07:38;100521.24;;;15.10;68.12
56582;BME280;42463;52.214;21.238;2022-10-16T03:10:03;100523.77;;;15.07;68.01
56582;BME280;42463;52.214;21.238;2022-10-16T03:12:27;100530.12;;;15.06;67.89
56582;BME280;42463;52.214;21.238;2022-10-16T03:14:52;100530.67;;;15.05;67.87
56582;BME280;42463;52.214;21.238;2022-10-16T03:17:16;100535.97;;;15.06;68.22
56582;BME280;42463;52.214;21.238;2022-10-16T03:19:41;100534.70;;;15.05;68.02
56582;BME280;42463;52.214;21.238;2022-10-16T03:22:05;100540.23;;;15.06;68.02
56582;BME280;42463;52.214;21.238;2022-10-16T03:24:29;100546.02;;;15.06;68.04
56582;BME280;42463;52.214;21.238;2022-10-16T03:26:54;100551.42;;;15.06;67.77
56582;BME280;42463;52.214;21.238;2022-10-16T03:29:18;100548.96;;;15.07;67.93
56582;BME280;42463;52.214;21.238;2022-10-16T03:31:43;100550.98;;;15.07;67.74
56582;BME280;42463;52.214;21.238;2022-10-16T03:34:07;100553.95;;;15.05;67.59
56582;BME280;42463;52.214;21.238;2022-10-16T03:36:31;100554.39;;;15.05;67.66
56582;BME280;42463;52.214;21.238;2022-10-16T03:38:56;100558.15;;;15.06;67.87
56582;BME280;42463;52.214;21.238;2022-10-16T03:41:20;100561.59;;;15.06;67.35
56582;BME280;42463;52.214;21.238;2022-10-16T03:43:44;100564.33;;;15.06;67.57
56582;BME280;42463;52.214;21.238;2022-10-16T03:46:09;100564.10;;;15.07;67.62
56582;BME280;42463;52.214;21.238;2022-10-16T03:48:33;100560.00;;;15.07;67.61
56582;BME280;42463;52.214;21.238;2022-10-16T03:50:57;100563.16;;;15.08;67.41
56582;BME280;42463;52.214;21.238;2022-10-16T03:53:21;100562.29;;;15.09;67.31
56582;BME280;42463;52.214;21.238;2022-10-16T03:55:46;100561.04;;;15.09;66.98
56582;BME280;42463;52.214;21.238;2022-10-16T03:58:10;100561.98;;;15.06;67.18
56582;BME280;42463;52.214;21.238;2022-10-16T04:00:35;100562.80;;;15.06;67.05
56582;BME280;42463;52.214;21.238;2022-10-16T04:02:59;100560.27;;;15.07;67.09
56582;BME280;42463;52.214;21.238;2022-10-16T04:05:24;100565.30;;;15.07;66.91
56582;BME280;42463;52.214;21.238;2022-10-16T04:07:48;100569.73;;;15.08;67.07
56582;BME280;42463;52.214;21.238;2022-10-16T04:10:12;100571.91;;;15.09;67.09
56582;BME280;42463;52.214;21.238;2022-10-16T04:12:37;100570.55;;;15.08;66.77
56582;BME280;42463;52.214;21.238;2022-10-16T04:15:01;100572.85;;;15.05;66.85
56582;BME280;42463;52.214;21.238;2022-10-16T04:17:25;100575.16;;;15.02;66.67
56582;BME280;42463;52.214;21.238;2022-10-16T04:19:49;100566.86;;;15.02;66.87
56582;BME280;42463;52.214;21.238;2022-10-16T04:22:13;100567.17;;;15.04;66.91
56582;BME280;42463;52.214;21.238;2022-10-16T04:24:38;100561.05;;;15.05;66.84
56582;BME280;42463;52.214;21.238;2022-10-16T04:27:02;100562.14;;;15.07;66.99
56582;BME280;42463;52.214;21.238;2022-10-16T04:29:27;100566.23;;;15.05;66.69
56582;BME280;42463;52.214;21.238;2022-10-16T04:31:51;100565.53;;;15.04;66.78
56582;BME280;42463;52.214;21.238;2022-10-16T04:34:16;100567.98;;;15.04;66.65
56582;BME280;42463;52.214;21.238;2022-10-16T04:36:40;100570.17;;;15.05;66.66
56582;BME280;42463;52.214;21.238;2022-10-16T04:39:03;100574.34;;;15.04;66.37
56582;BME280;42463;52.214;21.238;2022-10-16T04:41:27;100578.21;;;15.05;66.74
56582;BME280;42463;52.214;21.238;2022-10-16T04:43:51;100585.16;;;15.01;66.44
56582;BME280;42463;52.214;21.238;2022-10-16T04:46:16;100585.73;;;14.98;66.55
56582;BME280;42463;52.214;21.238;2022-10-16T04:48:40;100587.26;;;14.97;66.30
56582;BME280;42463;52.214;21.238;2022-10-16T04:51:05;100582.29;;;14.95;66.46
56582;BME280;42463;52.214;21.238;2022-10-16T04:53:29;100584.64;;;14.95;66.58
56582;BME280;42463;52.214;21.238;2022-10-16T04:55:54;100585.57;;;14.95;66.88
56582;BME280;42463;52.214;21.238;2022-10-16T04:58:19;100591.41;;;14.95;66.46
56582;BME280;42463;52.214;21.238;2022-10-16T05:00:45;100592.19;;;14.93;66.22
56582;BME280;42463;52.214;21.238;2022-10-16T05:03:10;100595.59;;;14.90;66.57
56582;BME280;42463;52.214;21.238;2022-10-16T05:05:35;100604.06;;;14.89;66.46
56582;BME280;42463;52.214;21.238;2022-10-16T05:08:00;100606.52;;;14.88;66.65
56582;BME280;42463;52.214;21.238;2022-10-16T05:10:24;100604.72;;;14.87;66.60
56582;BME280;42463;52.214;21.238;2022-10-16T05:12:49;100604.34;;;14.87;66.69
56582;BME280;42463;52.214;21.238;2022-10-16T05:15:14;100606.09;;;14.85;66.58
56582;BME280;42463;52.214;21.238;2022-10-16T05:17:38;100603.80;;;14.82;66.78
56582;BME280;42463;52.214;21.238;2022-10-16T05:20:03;100602.17;;;14.81;66.76
56582;BME280;42463;52.214;21.238;2022-10-16T05:22:28;100606.31;;;14.81;66.77
56582;BME280;42463;52.214;21.238;2022-10-16T05:24:52;100611.58;;;14.80;66.91
56582;BME280;42463;52.214;21.238;2022-10-16T05:27:16;100612.98;;;14.81;66.94
56582;BME280;42463;52.214;21.238;2022-10-16T05:29:42;100611.07;;;14.82;66.95
56582;BME280;42463;52.214;21.238;2022-10-16T05:32:07;100615.34;;;14.83;66.98
56582;BME280;42463;52.214;21.238;2022-10-16T05:34:32;100628.71;;;14.82;67.01
56582;BME280;42463;52.214;21.238;2022-10-16T05:36:57;100638.00;;;14.81;66.82
56582;BME280;42463;52.214;21.238;2022-10-16T05:39:22;100638.94;;;14.79;66.80
56582;BME280;42463;52.214;21.238;2022-10-16T05:41:46;100640.96;;;14.78;67.03
56582;BME280;42463;52.214;21.238;2022-10-16T05:44:13;100640.73;;;14.81;67.08
56582;BME280;42463;52.214;21.238;2022-10-16T05:46:38;100641.45;;;14.82;67.01
56582;BME280;42463;52.214;21.238;2022-10-16T05:49:02;100636.80;;;14.84;67.07
56582;BME280;42463;52.214;21.238;2022-10-16T05:51:26;100633.02;;;14.86;67.13
56582;BME280;42463;52.214;21.238;2022-10-16T05:53:51;100634.83;;;14.89;67.00
56582;BME280;42463;52.214;21.238;2022-10-16T05:56:16;100635.31;;;14.88;66.96
56582;BME280;42463;52.214;21.238;2022-10-16T05:58:40;100633.79;;;14.85;67.02
56582;BME280;42463;52.214;21.238;2022-10-16T06:01:09;100630.95;;;14.87;66.95
56582;BME280;42463;52.214;21.238;2022-10-16T06:03:33;100628.15;;;14.89;66.93
56582;BME280;42463;52.214;21.238;2022-10-16T06:05:58;100636.23;;;14.89;66.65
56582;BME280;42463;52.214;21.238;2022-10-16T06:08:24;100646.83;;;14.88;66.52
56582;BME280;42463;52.214;21.238;2022-10-16T06:10:49;100653.40;;;14.86;66.45
56582;BME280;42463;52.214;21.238;2022-10-16T06:13:14;100658.86;;;14.86;66.80
56582;BME280;42463;52.214;21.238;2022-10-16T06:15:39;100657.55;;;14.89;66.75
56582;BME280;42463;52.214;21.238;2022-10-16T06:18:04;100663.98;;;14.94;66.83
56582;BME280;42463;52.214;21.238;2022-10-16T06:20:29;100664.66;;;15.00;66.99
56582;BME280;42463;52.214;21.238;2022-10-16T06:22:53;100670.59;;;15.10;66.84
56582;BME280;42463;52.214;21.238;2022-10-16T06:25:18;100667.13;;;15.16;66.43
56582;BME280;42463;52.214;21.238;2022-10-16T06:27:42;100664.71;;;15.21;66.21
56582;BME280;42463;52.214;21.238;2022-10-16T06:30:08;100669.53;;;15.31;66.15
56582;BME280;42463;52.214;21.238;2022-10-16T06:32:33;100666.39;;;15.39;65.88
56582;BME280;42463;52.214;21.238;2022-10-16T06:34:57;100670.83;;;15.48;65.69
56582;BME280;42463;52.214;21.238;2022-10-16T06:37:22;100669.55;;;15.57;65.53
56582;BME280;42463;52.214;21.238;2022-10-16T06:39:48;100670.48;;;15.62;64.88
56582;BME280;42463;52.214;21.238;2022-10-16T06:42:12;100677.45;;;15.70;64.83
56582;BME280;42463;52.214;21.238;2022-10-16T06:44:37;100675.34;;;15.76;64.73
56582;BME280;42463;52.214;21.238;2022-10-16T06:47:02;100677.53;;;15.84;64.70
56582;BME280;42463;52.214;21.238;2022-10-16T06:49:27;100679.39;;;15.93;64.49
56582;BME280;42463;52.214;21.238;2022-10-16T06:51:52;100679.01;;;16.03;64.18
56582;BME280;42463;52.214;21.238;2022-10-16T06:54:17;100683.05;;;16.12;64.07
56582;BME280;42463;52.214;21.238;2022-10-16T06:56:41;100682.40;;;16.16;63.61
56582;BME280;42463;52.214;21.238;2022-10-16T06:59:06;100681.17;;;16.19;63.30
56582;BME280;42463;52.214;21.238;2022-10-16T07:01:30;100683.04;;;16.26;63.24
56582;BME280;42463;52.214;21.238;2022-10-16T07:03:55;100686.52;;;16.36;63.19
56582;BME280;42463;52.214;21.238;2022-10-16T07:06:21;100686.46;;;16.43;62.53
56582;BME280;42463;52.214;21.238;2022-10-16T07:09:00;100690.57;;;16.49;62.68
56582;BME280;42463;52.214;21.238;2022-10-16T07:11:25;100693.08;;;16.58;62.69
56582;BME280;42463;52.214;21.238;2022-10-16T07:13:52;100697.59;;;16.66;62.55
56582;BME280;42463;52.214;21.238;2022-10-16T07:16:18;100693.96;;;16.76;62.22
56582;BME280;42463;52.214;21.238;2022-10-16T07:18:43;100701.23;;;16.84;62.22
56582;BME280;42463;52.214;21.238;2022-10-16T07:21:10;100708.52;;;16.83;61.22
56582;BME280;42463;52.214;21.238;2022-10-16T07:23:37;100715.96;;;16.78;61.09
56582;BME280;42463;52.214;21.238;2022-10-16T07:26:02;100722.69;;;16.73;61.62
56582;BME280;42463;52.214;21.238;2022-10-16T07:28:27;100723.85;;;16.73;62.18
56582;BME280;42463;52.214;21.238;2022-10-16T07:30:54;100724.39;;;16.73;61.98
56582;BME280;42463;52.214;21.238;2022-10-16T07:33:21;100728.13;;;16.72;62.01
56582;BME280;42463;52.214;21.238;2022-10-16T07:35:51;100731.83;;;16.70;62.21
56582;BME280;42463;52.214;21.238;2022-10-16T07:38:18;100731.13;;;16.67;61.89
56582;BME280;42463;52.214;21.238;2022-10-16T07:40:42;100724.23;;;16.61;61.71
56582;BME280;42463;52.214;21.238;2022-10-16T07:43:07;100720.60;;;16.55;61.67
56582;BME280;42463;52.214;21.238;2022-10-16T07:45:34;100714.59;;;16.53;61.98
56582;BME280;42463;52.214;21.238;2022-10-16T07:47:58;100709.50;;;16.53;62.26
56582;BME280;42463;52.214;21.238;2022-10-16T07:50:23;100707.83;;;16.55;62.18
56582;BME280;42463;52.214;21.238;2022-10-16T07:52:50;100709.73;;;16.57;62.27
56582;BME280;42463;52.214;21.238;2022-10-16T07:55:16;100712.58;;;16.58;62.20
56582;BME280;42463;52.214;21.238;2022-10-16T07:57:49;100706.16;;;16.58;62.29
56582;BME280;42463;52.214;21.238;2022-10-16T08:00:15;100694.63;;;16.61;62.45
56582;BME280;42463;52.214;21.238;2022-10-16T08:02:41;100690.64;;;16.66;62.68
56582;BME280;42463;52.214;21.238;2022-10-16T08:05:06;100690.27;;;16.72;62.33
56582;BME280;42463;52.214;21.238;2022-10-16T08:07:32;100683.20;;;16.77;62.20
56582;BME280;42463;52.214;21.238;2022-10-16T08:09:58;100686.06;;;16.82;62.35
56582;BME280;42463;52.214;21.238;2022-10-16T08:12:22;100687.75;;;16.83;62.09
56582;BME280;42463;52.214;21.238;2022-10-16T08:14:47;100686.55;;;16.88;61.98
56582;BME280;42463;52.214;21.238;2022-10-16T08:17:15;100697.95;;;16.93;62.00
56582;BME280;42463;52.214;21.238;2022-10-16T08:19:40;100702.41;;;16.97;62.27
56582;BME280;42463;52.214;21.238;2022-10-16T08:22:08;100704.73;;;17.00;62.05
56582;BME280;42463;52.214;21.238;2022-10-16T08:24:32;100705.96;;;17.08;62.03
56582;BME280;42463;52.214;21.238;2022-10-16T08:26:57;100705.67;;;17.14;61.40
56582;BME280;42463;52.214;21.238;2022-10-16T08:29:23;100704.45;;;17.17;61.24
56582;BME280;42463;52.214;21.238;2022-10-16T08:31:48;100709.72;;;17.20;61.17
56582;BME280;42463;52.214;21.238;2022-10-16T08:34:12;100707.54;;;17.24;60.91
56582;BME280;42463;52.214;21.238;2022-10-16T08:36:37;100711.29;;;17.28;60.89
56582;BME280;42463;52.214;21.238;2022-10-16T08:39:02;100717.98;;;17.33;61.30
56582;BME280;42463;52.214;21.238;2022-10-16T08:42:04;100722.61;;;17.39;61.91
56582;BME280;42463;52.214;21.238;2022-10-16T08:44:43;100724.71;;;17.46;61.06
56582;BME280;42463;52.214;21.238;2022-10-16T08:47:19;100727.02;;;17.51;60.95
56582;BME280;42463;52.214;21.238;2022-10-16T08:49:54;100723.72;;;17.56;60.53
56582;BME280;42463;52.214;21.238;2022-10-16T08:52:20;100719.58;;;17.63;60.51
56582;BME280;42463;52.214;21.238;2022-10-16T08:54:55;100726.60;;;17.63;60.07
56582;BME280;42463;52.214;21.238;2022-10-16T08:57:22;100727.04;;;17.63;60.27
56582;BME280;42463;52.214;21.238;2022-10-16T08:59:50;100727.90;;;17.64;60.54
56582;BME280;42463;52.214;21.238;2022-10-16T09:02:26;100735.41;;;17.67;60.51
56582;BME280;42463;52.214;21.238;2022-10-16T09:07:46;100745.73;;;17.70;60.34
56582;BME280;42463;52.214;21.238;2022-10-16T09:10:29;100745.40;;;17.69;60.39
56582;BME280;42463;52.214;21.238;2022-10-16T09:13:00;100747.66;;;17.73;60.61
56582;BME280;42463;52.214;21.238;2022-10-16T09:15:34;100742.09;;;17.75;60.21
56582;BME280;42463;52.214;21.238;2022-10-16T09:18:05;100745.29;;;17.78;60.42
56582;BME280;42463;52.214;21.238;2022-10-16T09:20:42;100751.34;;;17.85;60.64
56582;BME280;42463;52.214;21.238;2022-10-16T09:23:18;100752.52;;;17.92;60.72
56582;BME280;42463;52.214;21.238;2022-10-16T09:25:49;100752.73;;;18.01;60.80
56582;BME280;42463;52.214;21.238;2022-10-16T09:28:16;100749.77;;;18.08;60.94
56582;BME280;42463;52.214;21.238;2022-10-16T09:30:41;100747.66;;;18.13;60.21
56582;BME280;42463;52.214;21.238;2022-10-16T09:33:06;100742.36;;;18.19;59.98
56582;BME280;42463;52.214;21.238;2022-10-16T09:35:37;100733.48;;;18.25;59.86
56582;BME280;42463;52.214;21.238;2022-10-16T09:38:08;100725.73;;;18.32;59.86
56582;BME280;42463;52.214;21.238;2022-10-16T09:40:34;100723.86;;;18.39;59.82
56582;BME280;42463;52.214;21.238;2022-10-16T09:43:08;100727.18;;;18.45;59.70
56582;BME280;42463;52.214;21.238;2022-10-16T09:45:54;100731.80;;;18.51;59.15
56582;BME280;42463;52.214;21.238;2022-10-16T09:48:21;100730.21;;;18.58;59.31
56582;BME280;42463;52.214;21.238;2022-10-16T09:50:57;100734.44;;;18.67;58.92
56582;BME280;42463;52.214;21.238;2022-10-16T09:53:35;100724.75;;;18.72;58.90
56582;BME280;42463;52.214;21.238;2022-10-16T09:56:01;100732.60;;;18.80;58.98
56582;BME280;42463;52.214;21.238;2022-10-16T09:58:29;100728.38;;;18.89;58.82
56582;BME280;42463;52.214;21.238;2022-10-16T10:00:54;100736.83;;;18.96;58.70
56582;BME280;42463;52.214;21.238;2022-10-16T10:03:33;100739.79;;;19.02;58.52
56582;BME280;42463;52.214;21.238;2022-10-16T10:05:58;100738.42;;;19.04;57.96
56582;BME280;42463;52.214;21.238;2022-10-16T10:08:23;100742.02;;;19.06;58.40
56582;BME280;42463;52.214;21.238;2022-10-16T10:10:49;100739.95;;;19.17;58.58
56582;BME280;42463;52.214;21.238;2022-10-16T10:13:21;100738.53;;;19.28;58.50
56582;BME280;42463;52.214;21.238;2022-10-16T10:15:45;100729.41;;;19.38;57.93
56582;BME280;42463;52.214;21.238;2022-10-16T10:18:18;100722.75;;;19.47;57.81
56582;BME280;42463;52.214;21.238;2022-10-16T10:20:45;100724.77;;;19.60;57.94
56582;BME280;42463;52.214;21.238;2022-10-16T10:23:22;100737.34;;;19.72;57.67
56582;BME280;42463;52.214;21.238;2022-10-16T10:26:08;100736.98;;;19.87;57.29
56582;BME280;42463;52.214;21.238;2022-10-16T10:31:45;100740.50;;;20.00;56.61
56582;BME280;42463;52.214;21.238;2022-10-16T10:34:23;100736.98;;;20.07;56.36
56582;BME280;42463;52.214;21.238;2022-10-16T10:37:05;100735.61;;;20.12;56.67
56582;BME280;42463;52.214;21.238;2022-10-16T10:39:38;100729.74;;;20.15;56.25
56582;BME280;42463;52.214;21.238;2022-10-16T10:42:15;100726.63;;;20.17;55.94
56582;BME280;42463;52.214;21.238;2022-10-16T10:47:47;100720.64;;;20.23;55.88
56582;BME280;42463;52.214;21.238;2022-10-16T10:50:16;100711.28;;;20.28;55.99
56582;BME280;42463;52.214;21.238;2022-10-16T10:52:56;100709.90;;;20.30;55.70
56582;BME280;42463;52.214;21.238;2022-10-16T10:55:27;100710.21;;;20.28;55.52
56582;BME280;42463;52.214;21.238;2022-10-16T10:58:12;100712.64;;;20.23;55.47
56582;BME280;42463;52.214;21.238;2022-10-16T11:00:47;100707.73;;;20.21;55.58
56582;BME280;42463;52.214;21.238;2022-10-16T11:03:27;100715.04;;;20.23;55.80
56582;BME280;42463;52.214;21.238;2022-10-16T11:05:57;100720.05;;;20.27;56.33
56582;BME280;42463;52.214;21.238;2022-10-16T11:08:28;100722.71;;;20.31;56.30
56582;BME280;42463;52.214;21.238;2022-10-16T11:10:57;100713.05;;;20.34;55.98
56582;BME280;42463;52.214;21.238;2022-10-16T11:13:28;100712.55;;;20.42;56.03
56582;BME280;42463;52.214;21.238;2022-10-16T11:15:59;100704.58;;;20.55;56.27
56582;BME280;42463;52.214;21.238;2022-10-16T11:18:32;100703.69;;;20.68;55.56
56582;BME280;42463;52.214;21.238;2022-10-16T11:21:15;100698.83;;;20.75;55.16
56582;BME280;42463;52.214;21.238;2022-10-16T11:23:45;100704.70;;;20.83;55.01
56582;BME280;42463;52.214;21.238;2022-10-16T11:26:16;100703.92;;;20.86;54.64
56582;BME280;42463;52.214;21.238;2022-10-16T11:28:47;100705.50;;;20.91;54.75
56582;BME280;42463;52.214;21.238;2022-10-16T11:31:17;100706.80;;;20.96;54.92
56582;BME280;42463;52.214;21.238;2022-10-16T11:36:31;100717.35;;;20.99;53.90
56582;BME280;42463;52.214;21.238;2022-10-16T11:39:20;100711.42;;;21.02;54.01
56582;BME280;42463;52.214;21.238;2022-10-16T11:41:44;100712.82;;;21.08;54.39
56582;BME280;42463;52.214;21.238;2022-10-16T11:44:25;100710.49;;;21.16;54.86
56582;BME280;42463;52.214;21.238;2022-10-16T11:47:05;100711.58;;;21.23;54.77
56582;BME280;42463;52.214;21.238;2022-10-16T11:49:33;100718.19;;;21.24;54.40
56582;BME280;42463;52.214;21.238;2022-10-16T11:52:05;100720.05;;;21.27;54.09
56582;BME280;42463;52.214;21.238;2022-10-16T11:54:50;100714.69;;;21.35;54.20
56582;BME280;42463;52.214;21.238;2022-10-16T11:57:20;100715.74;;;21.39;54.04
56582;BME280;42463;52.214;21.238;2022-10-16T11:59:50;100711.89;;;21.42;53.82
56582;BME280;42463;52.214;21.238;2022-10-16T12:02:30;100709.23;;;21.48;53.77
56582;BME280;42463;52.214;21.238;2022-10-16T12:05:17;100705.59;;;21.55;53.09
56582;BME280;42463;52.214;21.238;2022-10-16T12:07:50;100699.90;;;21.65;53.53
56582;BME280;42463;52.214;21.238;2022-10-16T12:10:28;100703.77;;;21.72;53.13
56582;BME280;42463;52.214;21.238;2022-10-16T12:12:55;100704.92;;;21.76;52.49
56582;BME280;42463;52.214;21.238;2022-10-16T12:15:24;100708.02;;;21.76;52.80
56582;BME280;42463;52.214;21.238;2022-10-16T12:17:51;100706.12;;;21.75;52.73
56582;BME280;42463;52.214;21.238;2022-10-16T12:20:36;100708.46;;;21.74;52.36
56582;BME280;42463;52.214;21.238;2022-10-16T12:23:03;100702.31;;;21.73;52.86
56582;BME280;42463;52.214;21.238;2022-10-16T12:25:31;100698.91;;;21.72;53.12
56582;BME280;42463;52.214;21.238;2022-10-16T12:27:58;100706.77;;;21.65;51.91
56582;BME280;42463;52.214;21.238;2022-10-16T12:30:25;100711.12;;;21.57;52.21
56582;BME280;42463;52.214;21.238;2022-10-16T12:32:56;100704.18;;;21.51;52.31
56582;BME280;42463;52.214;21.238;2022-10-16T12:35:23;100712.69;;;21.51;52.86
56582;BME280;42463;52.214;21.238;2022-10-16T12:37:49;100717.27;;;21.51;52.94
56582;BME280;42463;52.214;21.238;2022-10-16T12:43:10;100721.42;;;21.48;52.69
56582;BME280;42463;52.214;21.238;2022-10-16T12:45:35;100721.42;;;21.41;52.65
56582;BME280;42463;52.214;21.238;2022-10-16T12:48:01;100725.10;;;21.33;52.90
56582;BME280;42463;52.214;21.238;2022-10-16T12:50:33;100724.69;;;21.27;53.18
56582;BME280;42463;52.214;21.238;2022-10-16T12:52:59;100718.64;;;21.24;53.45
56582;BME280;42463;52.214;21.238;2022-10-16T12:55:24;100723.58;;;21.22;53.82
56582;BME280;42463;52.214;21.238;2022-10-16T12:58:00;100730.95;;;21.21;53.87